Kinsey, Alabama
Current Conditions -  °F | °C
As of 3:53 PM on Saturday 20 Dec 2014 (Local Time) from KDHN Reporting Station
Overcast Overcast  
Wind Chill: 57°   Ceiling: 4500
Heat Index: 57°   Visibility: 10mi
Dew Point: 50°   Wind: 6mph
Humidity: 77%   Direction: 40°NE
Pressure: 30.14"   Gusts: NA
Location:  31.271°N, 85.3923°W
Report Text: KDHN 202153Z 04005KT 10SM OVC045 14/10 A3014 RMK AO2 SLP205 T01390100
Loading
Personal Weather Stations






























Interactive Weather Map New forecast layout! Learn more

10-Day Weather Forecast

Advertisements
Track Severe Weather on mobile